createdAt,value
2019-03-01T00:03:07.120Z,101275.94
2019-03-01T00:08:14.549Z,101272.16
2019-03-01T00:13:54.454Z,101274.46
2019-03-01T00:19:34.234Z,101271.27
2019-03-01T00:25:12.538Z,101278.39
2019-03-01T00:30:45.266Z,101279.20
2019-03-01T00:36:30.729Z,101284.24
2019-03-01T00:42:00.242Z,101278.28
2019-03-01T00:47:05.455Z,101278.64
2019-03-01T00:52:10.452Z,101272.75
2019-03-01T00:57:12.786Z,101278.47
2019-03-01T01:02:14.839Z,101274.39
2019-03-01T01:07:17.639Z,101271.89
2019-03-01T01:12:19.688Z,101264.86
2019-03-01T01:17:23.767Z,101266.23
2019-03-01T01:22:25.857Z,101266.92
2019-03-01T01:27:32.988Z,101272.68
2019-03-01T01:32:40.480Z,101268.95
2019-03-01T01:37:45.301Z,101268.97
2019-03-01T01:42:47.383Z,101264.08
2019-03-01T01:47:49.483Z,101265.27
2019-03-01T01:52:51.544Z,101257.72
2019-03-01T01:57:55.917Z,101259.09
2019-03-01T02:02:59.296Z,101258.09
2019-03-01T02:08:06.054Z,101266.09
2019-03-01T02:13:08.229Z,101267.01
2019-03-01T02:18:10.273Z,101266.59
2019-03-01T02:23:15.184Z,101273.70
2019-03-01T02:28:19.529Z,101275.17
2019-03-01T02:33:26.773Z,101267.16
2019-03-01T02:38:33.676Z,101261.70
2019-03-01T02:43:35.934Z,101267.03
2019-03-01T02:48:38.006Z,101275.64
2019-03-01T02:53:40.243Z,101281.09
2019-03-01T02:58:43.369Z,101281.60
2019-03-01T03:03:46.351Z,101285.38
2019-03-01T03:08:48.444Z,101276.22
2019-03-01T03:13:51.733Z,101265.48
2019-03-01T03:18:55.742Z,101259.06
2019-03-01T03:23:59.176Z,101263.61
2019-03-01T03:29:01.188Z,101257.80
2019-03-01T03:34:13.502Z,101260.75
2019-03-01T03:39:18.328Z,101252.62
2019-03-01T03:44:20.654Z,101253.57
2019-03-01T03:49:22.716Z,101265.92
2019-03-01T03:54:24.874Z,101268.53
2019-03-01T03:59:26.897Z,101272.41
2019-03-01T04:04:29.148Z,101271.02
2019-03-01T04:09:31.260Z,101272.22
2019-03-01T04:14:33.425Z,101280.17
2019-03-01T04:19:38.590Z,101282.20
2019-03-01T04:24:42.526Z,101283.65
2019-03-01T04:29:44.569Z,101293.52
2019-03-01T04:34:48.067Z,101289.46
2019-03-01T04:39:51.609Z,101302.13
2019-03-01T04:44:57.674Z,101302.95
2019-03-01T04:49:59.702Z,101300.89
2019-03-01T04:55:04.062Z,101308.98
2019-03-01T05:00:09.099Z,101307.39
2019-03-01T05:05:14.654Z,101318.40
2019-03-01T05:10:16.910Z,101322.13
2019-03-01T05:15:22.697Z,101326.73
2019-03-01T05:20:24.740Z,101325.99
2019-03-01T05:25:29.495Z,101325.64
2019-03-01T05:30:36.732Z,101328.52
2019-03-01T05:35:38.926Z,101336.97
2019-03-01T05:40:40.986Z,101338.08
2019-03-01T05:45:48.525Z,101337.20
2019-03-01T05:50:56.135Z,101337.36
2019-03-01T05:55:58.200Z,101339.03
2019-03-01T06:01:09.753Z,101343.73
2019-03-01T06:06:15.382Z,101342.53
2019-03-01T06:11:38.115Z,101356.76
2019-03-01T06:17:07.927Z,101366.28
2019-03-01T06:23:06.904Z,101378.97
2019-03-01T06:28:50.641Z,101393.23
2019-03-01T06:34:29.123Z,101403.88
2019-03-01T06:40:38.061Z,101402.87
2019-03-01T06:46:20.271Z,101417.75
2019-03-01T06:51:33.670Z,101422.09
2019-03-01T06:56:35.833Z,101439.59
2019-03-01T07:01:43.903Z,101447.62
2019-03-01T07:06:48.972Z,101457.39
2019-03-01T07:11:53.252Z,101463.93
2019-03-01T07:16:57.311Z,101471.51
2019-03-01T07:22:00.920Z,101479.77
2019-03-01T07:27:03.056Z,101495.24
2019-03-01T07:32:05.160Z,101504.58
2019-03-01T07:37:07.304Z,101525.47
2019-03-01T07:42:10.589Z,101539.16
2019-03-01T07:47:15.403Z,101547.09
2019-03-01T07:52:17.499Z,101559.78
2019-03-01T07:57:22.714Z,101568.76
2019-03-01T08:02:24.862Z,101587.62
2019-03-01T08:07:29.939Z,101594.39
2019-03-01T08:12:33.076Z,101609.83
2019-03-01T08:17:37.278Z,101620.13
2019-03-01T08:22:48.082Z,101633.17
2019-03-01T08:27:46.343Z,101641.34
2019-03-01T08:32:49.013Z,101652.48
2019-03-01T08:37:53.500Z,101654.45
2019-03-01T08:42:55.389Z,101666.64
2019-03-01T08:47:58.885Z,101673.64
2019-03-01T08:53:06.224Z,101679.41
2019-03-01T08:58:08.304Z,101691.48
2019-03-01T09:03:23.310Z,101706.97
2019-03-01T09:08:26.479Z,101713.59
2019-03-01T09:13:28.983Z,101732.52
2019-03-01T09:18:31.111Z,101748.77
2019-03-01T09:23:36.276Z,101753.05
2019-03-01T09:28:39.685Z,101749.66
2019-03-01T09:33:42.336Z,101750.34
2019-03-01T09:38:45.908Z,101762.05
2019-03-01T09:43:48.002Z,101774.95
2019-03-01T09:48:50.526Z,101789.28
2019-03-01T09:53:52.651Z,101798.66
2019-03-01T09:58:57.342Z,101799.98
2019-03-01T10:04:02.427Z,101809.06
2019-03-01T10:09:09.898Z,101809.35
2019-03-01T10:14:12.151Z,101813.14
2019-03-01T10:19:17.086Z,101813.69
2019-03-01T10:24:19.293Z,101818.31
2019-03-01T10:29:25.415Z,101829.78
2019-03-01T10:34:27.804Z,101827.64
2019-03-01T10:39:33.008Z,101826.33
2019-03-01T10:44:35.326Z,101830.37
2019-03-01T10:49:40.135Z,101841.93
2019-03-01T10:54:42.155Z,101837.15
2019-03-01T10:59:47.375Z,101846.64
2019-03-01T11:04:51.739Z,101853.55
2019-03-01T11:09:54.316Z,101847.05
2019-03-01T11:14:59.610Z,101846.47
2019-03-01T11:20:01.625Z,101848.45
2019-03-01T11:25:06.458Z,101860.00
2019-03-01T11:30:12.366Z,101861.52
2019-03-01T11:35:15.861Z,101854.88
2019-03-01T11:40:23.625Z,101858.39
2019-03-01T11:45:28.069Z,101865.87
2019-03-01T11:50:31.598Z,101872.05
2019-03-01T11:55:36.808Z,101856.68
2019-03-01T12:00:41.196Z,101853.50
2019-03-01T12:05:43.574Z,101861.59
2019-03-01T12:10:45.867Z,101863.52
2019-03-01T12:15:51.276Z,101873.84
2019-03-01T12:20:53.367Z,101876.66
2019-03-01T12:25:55.409Z,101872.73
2019-03-01T12:31:04.878Z,101877.09
2019-03-01T12:36:07.057Z,101864.90
2019-03-01T12:41:09.129Z,101876.90
2019-03-01T12:46:12.641Z,101885.52
2019-03-01T12:51:14.841Z,101884.35
2019-03-01T12:56:17.235Z,101885.66
2019-03-01T13:01:23.998Z,101894.53
2019-03-01T13:06:27.389Z,101893.89
2019-03-01T13:11:29.531Z,101895.33
2019-03-01T13:16:33.977Z,101898.77
2019-03-01T13:21:36.136Z,101896.77
2019-03-01T13:26:40.815Z,101890.58
2019-03-01T13:31:47.112Z,101892.05
2019-03-01T13:36:48.355Z,101895.77
2019-03-01T13:41:50.460Z,101909.40
2019-03-01T13:46:55.346Z,101907.17
2019-03-01T13:51:57.463Z,101912.78
2019-03-01T13:57:03.924Z,101914.05
2019-03-01T14:02:08.514Z,101915.45
2019-03-01T14:07:10.716Z,101911.69
2019-03-01T14:12:12.969Z,101916.88
2019-03-01T14:17:15.281Z,101930.91
2019-03-01T14:22:18.488Z,101928.78
2019-03-01T14:27:20.775Z,101927.27
2019-03-01T14:32:24.606Z,101923.44
2019-03-01T14:37:27.079Z,101928.83
2019-03-01T14:42:29.149Z,101929.70
2019-03-01T14:47:32.728Z,101932.66
2019-03-01T14:52:35.497Z,101942.91
2019-03-01T14:57:43.068Z,101954.61
2019-03-01T15:03:23.687Z,101952.33
2019-03-01T15:08:26.061Z,101959.07
2019-03-01T15:13:34.838Z,101961.78
2019-03-01T15:18:36.102Z,101956.78
2019-03-01T15:23:38.142Z,101953.30
2019-03-01T15:28:44.681Z,101948.23
2019-03-01T15:33:51.222Z,101949.11
2019-03-01T15:38:55.568Z,101954.28
2019-03-01T15:43:57.756Z,101956.67
2019-03-01T15:48:59.821Z,101957.02
2019-03-01T15:54:02.036Z,101958.94
2019-03-01T15:59:06.007Z,101961.99
2019-03-01T16:04:10.680Z,101968.78
2019-03-01T16:09:21.740Z,101976.87
2019-03-01T16:14:24.311Z,101981.88
2019-03-01T16:19:26.866Z,101979.75
2019-03-01T16:24:28.923Z,101983.17
2019-03-01T16:29:33.622Z,101984.00
2019-03-01T16:34:37.787Z,101987.07
2019-03-01T16:39:41.475Z,101986.05
2019-03-01T16:44:44.775Z,101993.27
2019-03-01T16:49:47.566Z,102000.03
2019-03-01T16:54:52.516Z,101996.31
2019-03-01T16:59:56.046Z,101995.48
2019-03-01T17:05:03.938Z,101996.06
2019-03-01T17:10:15.070Z,101992.54
2019-03-01T17:15:25.758Z,101992.07
2019-03-01T17:20:28.219Z,101993.15
2019-03-01T17:25:31.241Z,101994.33
2019-03-01T17:30:36.491Z,101993.92
2019-03-01T17:35:40.983Z,101993.92
2019-03-01T17:40:43.912Z,101996.59
2019-03-01T17:45:46.160Z,101997.44
2019-03-01T17:50:50.299Z,101998.17
2019-03-01T17:55:52.441Z,101999.08
2019-03-01T18:01:02.755Z,102006.25
2019-03-01T18:06:03.589Z,102005.52
2019-03-01T18:11:08.795Z,102007.93
2019-03-01T18:16:11.814Z,102009.20
2019-03-01T18:21:14.559Z,102007.50
2019-03-01T18:26:19.694Z,102012.84
2019-03-01T18:31:23.984Z,102007.39
2019-03-01T18:36:28.185Z,102006.02
2019-03-01T18:41:30.263Z,102011.95
2019-03-01T18:46:33.576Z,102015.88
2019-03-01T18:51:43.387Z,102014.67
2019-03-01T18:56:44.814Z,102008.78
2019-03-01T19:01:48.636Z,102012.34
2019-03-01T19:06:52.604Z,102008.20
2019-03-01T19:11:54.920Z,102014.75
2019-03-01T19:16:57.070Z,102012.50
2019-03-01T19:22:02.562Z,102011.24
2019-03-01T19:27:04.697Z,102014.21
2019-03-01T19:32:06.738Z,102005.36
2019-03-01T19:37:10.228Z,102014.95
2019-03-01T19:42:13.570Z,102018.33
2019-03-01T19:47:15.743Z,102018.73
2019-03-01T19:52:20.177Z,102020.09
2019-03-01T19:57:22.802Z,102009.72
2019-03-01T20:02:30.983Z,102025.86
2019-03-01T20:07:35.572Z,102021.97
2019-03-01T20:12:40.605Z,102015.77
2019-03-01T20:17:44.615Z,102023.44
2019-03-01T20:22:50.555Z,102019.39
2019-03-01T20:27:53.103Z,102015.66
2019-03-01T20:32:55.218Z,102017.09
2019-03-01T20:38:00.175Z,102022.03
2019-03-01T20:43:06.704Z,102018.22
2019-03-01T20:48:11.862Z,102024.03
2019-03-01T20:53:14.347Z,102017.20
2019-03-01T20:58:39.565Z,102017.67
2019-03-01T21:03:43.744Z,102016.37
2019-03-01T21:08:46.189Z,102015.05
2019-03-01T21:13:51.398Z,102020.23
2019-03-01T21:18:57.481Z,102025.37
2019-03-01T21:23:59.745Z,102022.42
2019-03-01T21:29:04.599Z,102024.59
2019-03-01T21:34:09.919Z,102028.09
2019-03-01T21:39:20.626Z,102015.24
2019-03-01T21:44:24.692Z,102007.86
2019-03-01T21:49:32.229Z,102001.51
2019-03-01T21:54:34.352Z,102000.88
2019-03-01T22:04:49.883Z,102005.57
2019-03-01T22:10:02.584Z,102018.25
2019-03-01T22:15:08.676Z,102014.38
2019-03-01T22:20:10.840Z,102013.91
2019-03-01T22:25:21.955Z,102016.34
2019-03-01T22:30:25.703Z,102025.25
2019-03-01T22:35:27.958Z,102008.59
2019-03-01T22:40:31.277Z,102010.22
2019-03-01T22:45:34.395Z,102009.92
2019-03-01T22:50:39.478Z,101992.92
2019-03-01T22:55:40.858Z,101987.11
2019-03-01T23:01:17.299Z,101987.11
2019-03-01T23:06:20.995Z,101991.17
2019-03-01T23:11:32.404Z,101992.15
2019-03-01T23:16:32.986Z,101992.83
2019-03-01T23:21:35.891Z,101997.34
2019-03-01T23:26:39.063Z,101998.16
2019-03-01T23:31:41.066Z,101994.41
2019-03-01T23:36:44.381Z,101990.23
2019-03-01T23:41:50.433Z,101982.22
2019-03-01T23:46:52.535Z,101986.47
2019-03-01T23:51:56.549Z,101976.17
2019-03-01T23:57:01.914Z,101968.84
